Time;durP1;ratioP1;P1;durP2;ratioP2;P2;SDS_P1;SDS_P2;PMS_P1;PMS_P2;Temp;Humidity;BMP_temperature;BMP_pressure;BME280_temperature;BME280_humidity;BME280_pressure;Samples;Min_cycle;Max_cycle;Signal;HPM_P1;HPM_P2
2021/09/21 00:01:08;;;;;;;5.47;1.50;;;21.20;60.50;;;;;;5034421;28;20060;-69
2021/09/21 00:03:35;;;;;;;5.45;1.60;;;21.20;60.50;;;;;;5034468;28;20198;-70
2021/09/21 00:06:03;;;;;;;5.07;1.70;;;21.20;60.50;;;;;;5033722;28;20517;-70
2021/09/21 00:08:29;;;;;;;4.20;1.50;;;21.20;60.50;;;;;;5035611;28;20073;-69
2021/09/21 00:10:55;;;;;;;4.82;1.70;;;21.20;60.50;;;;;;5034153;28;20038;-70
2021/09/21 00:13:21;;;;;;;4.95;1.50;;;21.20;60.50;;;;;;5033670;28;20489;-70
2021/09/21 00:15:47;;;;;;;5.40;1.70;;;21.20;60.50;;;;;;5033601;28;20044;-70
2021/09/21 00:18:13;;;;;;;5.18;1.58;;;21.20;60.50;;;;;;5041661;28;20102;-70
2021/09/21 00:20:38;;;;;;;8.40;1.77;;;21.20;60.50;;;;;;5033998;28;20051;-69
2021/09/21 00:23:04;;;;;;;4.30;1.42;;;21.20;60.50;;;;;;5034327;28;20553;-70
2021/09/21 00:25:30;;;;;;;4.00;1.38;;;21.20;60.50;;;;;;5034156;28;20526;-70
2021/09/21 00:27:55;;;;;;;4.07;1.60;;;21.20;60.50;;;;;;5031486;28;20045;-70
2021/09/21 00:30:24;;;;;;;6.82;1.50;;;21.20;60.50;;;;;;5032472;28;20738;-71
2021/09/21 00:33:01;;;;;;;5.03;1.60;;;21.20;60.50;;;;;;5034993;28;20095;-70
2021/09/21 00:35:27;;;;;;;4.68;1.40;;;21.20;60.50;;;;;;5034482;28;20111;-70
2021/09/21 00:37:53;;;;;;;3.35;1.27;;;21.20;60.50;;;;;;5033957;28;20040;-70
2021/09/21 00:40:19;;;;;;;5.20;1.75;;;21.20;60.50;;;;;;5033118;28;20055;-70
2021/09/21 00:42:47;;;;;;;5.75;1.40;;;21.20;60.50;;;;;;5035682;28;20061;-70
2021/09/21 00:45:23;;;;;;;3.60;1.27;;;21.20;60.50;;;;;;5031913;28;20037;-70
2021/09/21 00:47:52;;;;;;;4.05;1.38;;;21.20;60.50;;;;;;5032639;28;20571;-70
2021/09/21 00:50:19;;;;;;;6.05;1.70;;;21.20;60.50;;;;;;5036842;28;20092;-69
2021/09/21 00:52:47;;;;;;;5.63;1.60;;;21.20;60.50;;;;;;5041661;28;20034;-70
2021/09/21 00:55:13;;;;;;;7.97;1.77;;;21.20;60.50;;;;;;5038078;28;20422;-69
2021/09/21 00:57:41;;;;;;;3.40;1.40;;;21.20;60.50;;;;;;5038090;28;20044;-69
2021/09/21 01:00:09;;;;;;;3.95;1.30;;;21.20;60.50;;;;;;5037286;28;20056;-69
2021/09/21 01:02:35;;;;;;;7.15;1.65;;;21.20;60.50;;;;;;5038047;28;20083;-70
2021/09/21 01:05:01;;;;;;;4.13;1.50;;;21.20;60.50;;;;;;5035083;28;20042;-69
2021/09/21 01:07:27;;;;;;;5.57;1.40;;;21.20;60.50;;;;;;5039113;28;20090;-70
2021/09/21 01:10:11;;;;;;;5.30;1.55;;;21.20;60.50;;;;;;5039541;28;20045;-70
2021/09/21 01:12:38;;;;;;;6.03;1.33;;;21.20;60.40;;;;;;5038435;28;20059;-70
2021/09/21 01:15:06;;;;;;;4.05;1.40;;;21.20;60.40;;;;;;5039009;28;20137;-69
2021/09/21 01:17:32;;;;;;;4.93;1.55;;;21.20;60.40;;;;;;5039518;28;20176;-69
2021/09/21 01:19:58;;;;;;;3.92;1.40;;;21.20;60.40;;;;;;5038438;28;20128;-69
2021/09/21 01:22:24;;;;;;;6.63;1.55;;;21.20;60.60;;;;;;5036031;28;20088;-70
2021/09/21 01:24:50;;;;;;;3.88;1.45;;;21.20;60.40;;;;;;5036122;28;20565;-70
2021/09/21 01:27:16;;;;;;;4.43;1.17;;;21.20;60.40;;;;;;5033068;28;20038;-68
2021/09/21 01:29:42;;;;;;;4.45;1.40;;;21.20;60.40;;;;;;5038539;28;20521;-69
2021/09/21 01:32:08;;;;;;;5.20;1.55;;;21.20;60.40;;;;;;5034460;28;20041;-69
2021/09/21 01:34:34;;;;;;;3.30;1.27;;;21.20;60.40;;;;;;5036424;28;20021;-68
2021/09/21 01:37:01;;;;;;;6.32;1.67;;;21.20;60.40;;;;;;5037435;28;20037;-69
2021/09/21 01:39:27;;;;;;;3.58;1.40;;;21.20;60.40;;;;;;5037793;28;20698;-70
2021/09/21 01:41:52;;;;;;;4.10;1.40;;;21.20;60.40;;;;;;5036118;28;20045;-70
2021/09/21 01:44:18;;;;;;;5.72;1.60;;;21.20;60.40;;;;;;5036915;28;20437;-70
2021/09/21 01:46:49;;;;;;;6.40;1.40;;;21.20;60.40;;;;;;5036703;28;20040;-69
2021/09/21 01:49:17;;;;;;;6.10;1.67;;;21.20;60.40;;;;;;5036724;28;20041;-69
2021/09/21 01:52:02;;;;;;;3.60;1.30;;;21.20;60.40;;;;;;5035688;28;20486;-70
2021/09/21 01:54:47;;;;;;;4.07;1.40;;;21.20;60.40;;;;;;5035339;28;20479;-68
2021/09/21 01:59:57;;;;;;;7.68;1.90;;;21.20;60.40;;;;;;5031759;28;20327;-70
2021/09/21 02:02:22;;;;;;;4.28;1.50;;;21.10;60.30;;;;;;5035367;28;20070;-69
2021/09/21 02:04:48;;;;;;;3.72;1.27;;;21.20;60.40;;;;;;5035247;28;20040;-69
2021/09/21 02:07:14;;;;;;;3.92;1.27;;;21.20;60.40;;;;;;5038703;28;20039;-68
2021/09/21 02:09:39;;;;;;;3.15;1.20;;;21.20;60.40;;;;;;5035764;28;20028;-69
2021/09/21 02:12:05;;;;;;;3.28;1.20;;;21.20;60.40;;;;;;5036799;28;20042;-69
2021/09/21 02:14:31;;;;;;;4.97;1.33;;;21.20;60.30;;;;;;5036044;28;20037;-69
2021/09/21 02:16:57;;;;;;;5.10;1.50;;;21.20;60.30;;;;;;5036050;28;20620;-70
2021/09/21 02:19:24;;;;;;;3.65;1.35;;;21.20;60.30;;;;;;5035613;28;20482;-70
2021/09/21 02:21:50;;;;;;;3.55;1.30;;;21.20;60.30;;;;;;5036670;28;20044;-70
2021/09/21 02:24:19;;;;;;;4.30;1.42;;;21.20;60.30;;;;;;5034457;28;20083;-70
2021/09/21 02:26:45;;;;;;;4.20;1.52;;;21.20;60.30;;;;;;5034508;28;20044;-69
2021/09/21 02:29:11;;;;;;;3.90;1.48;;;21.20;60.30;;;;;;5034200;28;20079;-70
2021/09/21 02:31:37;;;;;;;4.32;1.42;;;21.20;60.30;;;;;;5034345;28;20061;-69
2021/09/21 02:34:03;;;;;;;3.72;1.33;;;21.20;60.30;;;;;;5033906;28;20053;-69
2021/09/21 02:36:29;;;;;;;3.63;1.25;;;21.20;60.30;;;;;;5033358;28;20036;-70
2021/09/21 02:38:54;;;;;;;4.20;1.60;;;21.20;60.30;;;;;;5034553;28;20418;-69
2021/09/21 02:41:20;;;;;;;3.90;1.55;;;21.20;60.30;;;;;;5033779;28;20147;-70
2021/09/21 02:43:46;;;;;;;3.92;1.40;;;21.20;60.30;;;;;;5035428;28;20045;-71
2021/09/21 02:46:12;;;;;;;3.47;1.30;;;21.20;60.20;;;;;;5033924;28;20120;-70
2021/09/21 02:48:38;;;;;;;4.30;1.40;;;21.20;60.20;;;;;;5033896;28;20099;-70
2021/09/21 02:51:03;;;;;;;4.28;1.38;;;21.20;60.30;;;;;;5033721;28;20033;-71
2021/09/21 02:53:29;;;;;;;3.05;1.20;;;21.10;60.20;;;;;;5034161;28;20499;-70
2021/09/21 02:55:55;;;;;;;4.18;1.40;;;21.20;60.30;;;;;;5034805;28;20044;-70
2021/09/21 02:58:21;;;;;;;4.95;1.30;;;21.20;60.20;;;;;;5035248;28;20045;-70
2021/09/21 03:00:50;;;;;;;3.58;1.27;;;21.10;60.20;;;;;;5037004;28;20060;-70
2021/09/21 03:03:16;;;;;;;3.60;1.27;;;21.20;60.20;;;;;;5035260;28;20048;-69
2021/09/21 03:05:44;;;;;;;4.40;1.40;;;21.10;60.20;;;;;;5035659;28;20049;-68
2021/09/21 03:18:30;;;;;;;3.78;1.30;;;21.10;60.20;;;;;;5032567;28;20137;-70
2021/09/21 03:20:56;;;;;;;3.63;1.25;;;21.10;60.10;;;;;;5035487;28;20527;-69
2021/09/21 03:23:22;;;;;;;4.53;1.48;;;21.20;60.20;;;;;;5033074;28;20045;-69
2021/09/21 03:25:48;;;;;;;4.03;1.38;;;21.10;60.10;;;;;;5034904;28;20465;-68
2021/09/21 03:28:14;;;;;;;4.53;1.42;;;21.20;60.10;;;;;;5033218;28;20045;-69
2021/09/21 03:30:39;;;;;;;4.03;1.33;;;21.20;60.20;;;;;;5034710;28;20037;-69
2021/09/21 03:33:05;;;;;;;4.68;1.00;;;21.20;60.10;;;;;;5032485;28;20057;-69
2021/09/21 03:35:31;;;;;;;4.38;1.02;;;21.10;60.10;;;;;;5034570;28;20041;-69
2021/09/21 03:37:57;;;;;;;3.25;1.20;;;21.10;60.10;;;;;;5033450;28;20056;-70
2021/09/21 03:40:23;;;;;;;3.33;1.15;;;21.10;60.10;;;;;;5033970;28;20038;-69
2021/09/21 03:42:48;;;;;;;4.30;1.52;;;21.10;60.10;;;;;;5033061;28;20418;-70
2021/09/21 03:45:14;;;;;;;6.25;1.23;;;21.10;60.10;;;;;;5034950;28;20045;-69
2021/09/21 03:47:40;;;;;;;4.13;1.55;;;21.10;60.10;;;;;;5036912;28;20043;-69
2021/09/21 03:50:07;;;;;;;2.60;1.00;;;21.10;60.10;;;;;;5036183;28;20053;-70
2021/09/21 03:52:33;;;;;;;3.90;1.40;;;21.20;60.10;;;;;;5033692;28;20036;-70
2021/09/21 03:54:58;;;;;;;4.30;1.40;;;21.10;60.10;;;;;;5035071;28;20036;-70
2021/09/21 03:57:24;;;;;;;3.60;1.27;;;21.10;60.20;;;;;;5034955;28;20056;-69
2021/09/21 03:59:50;;;;;;;3.85;1.17;;;21.20;60.10;;;;;;5035436;28;20033;-69
2021/09/21 04:02:16;;;;;;;4.50;1.48;;;21.20;60.10;;;;;;5037135;28;20446;-69
2021/09/21 04:04:41;;;;;;;8.73;1.45;;;21.10;60.10;;;;;;5032874;28;20063;-71
2021/09/21 04:07:07;;;;;;;14.90;2.35;;;21.10;60.10;;;;;;5034063;28;20033;-69
2021/09/21 04:09:33;;;;;;;32.13;5.10;;;21.10;60.00;;;;;;5031232;28;20041;-69
2021/09/21 04:11:58;;;;;;;42.33;6.63;;;21.20;60.10;;;;;;5030814;28;20046;-69
2021/09/21 04:14:24;;;;;;;41.65;6.75;;;21.10;60.00;;;;;;5034420;28;20186;-69
2021/09/21 04:16:50;;;;;;;52.20;9.27;;;21.10;60.00;;;;;;5033927;28;20064;-70
2021/09/21 04:19:16;;;;;;;72.15;11.40;;;21.10;60.10;;;;;;5032051;28;20651;-69
2021/09/21 04:21:42;;;;;;;68.28;8.75;;;21.10;60.10;;;;;;5034224;28;20077;-69
2021/09/21 04:24:07;;;;;;;67.32;10.68;;;21.10;60.10;;;;;;5036937;28;20049;-69
2021/09/21 04:26:33;;;;;;;62.30;9.55;;;21.10;60.10;;;;;;5037831;28;20041;-69
2021/09/21 04:28:59;;;;;;;76.47;11.15;;;21.10;60.10;;;;;;5037383;28;20037;-69
2021/09/21 04:31:27;;;;;;;67.57;11.45;;;21.10;60.20;;;;;;5034894;28;20045;-70
2021/09/21 04:33:54;;;;;;;67.13;11.60;;;21.20;60.20;;;;;;5037751;28;20107;-68
2021/09/21 04:36:21;;;;;;;55.92;10.38;;;21.10;60.20;;;;;;5035601;28;20037;-70
2021/09/21 04:38:47;;;;;;;91.93;17.15;;;21.20;60.20;;;;;;5036207;28;20572;-71
2021/09/21 04:41:13;;;;;;;116.53;18.83;;;21.10;60.20;;;;;;5039440;28;20188;-70
2021/09/21 04:43:39;;;;;;;99.53;16.95;;;21.20;60.30;;;;;;5039920;28;20128;-70
2021/09/21 04:46:08;;;;;;;107.72;19.13;;;21.20;60.30;;;;;;5038609;28;20037;-70
2021/09/21 04:48:34;;;;;;;85.95;16.25;;;21.20;60.30;;;;;;5037877;28;20037;-71
2021/09/21 04:51:00;;;;;;;84.05;16.02;;;21.20;60.30;;;;;;5037851;28;20048;-67
2021/09/21 04:53:25;;;;;;;77.32;13.10;;;21.20;60.30;;;;;;5035756;28;20494;-70
2021/09/21 04:55:51;;;;;;;69.80;12.85;;;21.20;60.20;;;;;;5036165;28;20048;-69
2021/09/21 04:58:17;;;;;;;71.20;12.90;;;21.20;60.20;;;;;;5035715;28;20037;-69
2021/09/21 05:00:42;;;;;;;63.05;11.43;;;21.20;60.20;;;;;;5038793;28;20075;-70
2021/09/21 05:03:08;;;;;;;58.03;10.32;;;21.20;60.20;;;;;;5038093;28;20029;-70
2021/09/21 05:05:34;;;;;;;58.33;10.98;;;21.20;60.20;;;;;;5035269;28;20053;-70
2021/09/21 05:07:59;;;;;;;55.67;10.98;;;21.20;60.20;;;;;;5035282;28;20049;-70
2021/09/21 05:10:27;;;;;;;46.70;8.43;;;21.20;60.20;;;;;;5038626;28;20072;-70
2021/09/21 05:12:52;;;;;;;47.63;8.50;;;21.20;60.20;;;;;;5037291;28;20125;-70
2021/09/21 05:15:18;;;;;;;33.70;7.13;;;21.20;60.10;;;;;;5036626;28;20595;-69
2021/09/21 05:17:44;;;;;;;40.92;7.55;;;21.20;60.10;;;;;;5036979;28;20049;-70
2021/09/21 05:20:10;;;;;;;43.03;8.65;;;21.10;60.10;;;;;;5039218;28;20047;-70
2021/09/21 05:22:37;;;;;;;43.17;7.82;;;21.10;60.20;;;;;;5037187;28;20446;-69
2021/09/21 05:25:03;;;;;;;40.47;7.55;;;21.20;60.20;;;;;;5035710;28;20041;-69
2021/09/21 05:27:29;;;;;;;37.70;7.07;;;21.10;60.20;;;;;;5036249;28;20037;-70
2021/09/21 05:29:54;;;;;;;42.33;6.82;;;21.20;60.10;;;;;;5036533;28;20049;-68
2021/09/21 05:32:20;;;;;;;34.00;6.00;;;21.10;60.00;;;;;;5037452;28;20415;-70
2021/09/21 05:34:46;;;;;;;24.63;5.63;;;21.10;59.10;;;;;;5035248;28;20039;-70
2021/09/21 05:37:12;;;;;;;23.98;5.60;;;21.10;57.30;;;;;;5035273;28;20402;-68
2021/09/21 05:39:37;;;;;;;27.75;4.75;;;21.10;56.20;;;;;;5033455;28;20271;-69
2021/09/21 05:42:03;;;;;;;28.15;5.15;;;21.10;56.80;;;;;;5034716;28;20049;-69
2021/09/21 05:44:29;;;;;;;20.75;4.80;;;21.00;55.20;;;;;;5049939;28;20033;-69
2021/09/21 05:46:55;;;;;;;20.17;4.13;;;21.00;56.20;;;;;;5035146;28;20034;-68
2021/09/21 05:49:20;;;;;;;16.23;4.82;;;21.00;55.70;;;;;;5034061;28;20064;-69
2021/09/21 05:51:46;;;;;;;15.38;3.90;;;21.00;55.90;;;;;;5034987;28;20041;-70
2021/09/21 05:54:11;;;;;;;27.80;4.10;;;21.00;55.70;;;;;;5036431;28;20045;-69
2021/09/21 05:56:37;;;;;;;16.90;3.97;;;21.00;56.00;;;;;;5038079;28;20047;-69
2021/09/21 05:59:03;;;;;;;16.67;4.05;;;21.00;56.30;;;;;;5033521;28;20140;-69
2021/09/21 06:01:30;;;;;;;18.67;4.13;;;21.00;56.60;;;;;;5034217;28;20147;-70
2021/09/21 06:03:56;;;;;;;19.35;3.80;;;21.00;56.50;;;;;;5036305;28;20406;-69
2021/09/21 06:06:22;;;;;;;21.40;4.80;;;21.10;56.80;;;;;;5034152;28;20037;-69
2021/09/21 06:08:48;;;;;;;15.95;3.35;;;21.00;56.70;;;;;;5035625;28;20048;-68
2021/09/21 06:11:20;;;;;;;15.57;3.65;;;21.00;56.90;;;;;;5037135;28;20114;-68
2021/09/21 06:13:47;;;;;;;13.20;3.55;;;21.00;57.00;;;;;;5036424;28;20942;-68
2021/09/21 06:16:15;;;;;;;18.92;3.88;;;21.00;57.20;;;;;;5035801;28;20051;-69
2021/09/21 06:18:40;;;;;;;12.35;3.00;;;21.00;57.40;;;;;;5038067;28;20090;-68
2021/09/21 06:21:06;;;;;;;21.05;3.40;;;21.00;57.70;;;;;;5036483;28;20049;-69
2021/09/21 06:23:32;;;;;;;17.42;3.50;;;21.00;57.60;;;;;;5035599;28;20047;-69
2021/09/21 06:25:57;;;;;;;16.80;3.78;;;21.00;57.70;;;;;;5033567;28;20042;-69
2021/09/21 06:28:23;;;;;;;17.92;3.63;;;21.00;57.90;;;;;;5034068;28;20056;-69
2021/09/21 06:30:49;;;;;;;13.05;3.30;;;21.10;58.20;;;;;;5033977;28;20045;-69
2021/09/21 06:33:14;;;;;;;9.88;3.00;;;21.00;58.10;;;;;;5035631;28;20041;-69
2021/09/21 06:35:40;;;;;;;13.48;3.10;;;21.00;58.30;;;;;;5035662;28;20071;-69
2021/09/21 06:38:05;;;;;;;11.70;3.10;;;21.10;58.50;;;;;;5034699;28;20080;-70
2021/09/21 06:40:31;;;;;;;13.85;3.03;;;21.00;58.40;;;;;;5035355;28;20064;-69
2021/09/21 06:42:57;;;;;;;13.15;3.28;;;21.00;58.50;;;;;;5034459;28;20041;-68
2021/09/21 06:45:23;;;;;;;13.45;3.33;;;21.10;58.70;;;;;;5034741;28;20056;-70
2021/09/21 06:47:48;;;;;;;14.43;3.20;;;21.10;58.70;;;;;;5032980;28;20088;-70
2021/09/21 06:50:15;;;;;;;14.25;3.08;;;21.10;58.90;;;;;;5033230;28;20488;-70
2021/09/21 06:52:40;;;;;;;8.00;2.85;;;21.00;58.70;;;;;;5035923;28;20029;-70
2021/09/21 06:55:07;;;;;;;11.65;2.58;;;21.00;58.70;;;;;;5033062;28;20457;-70
2021/09/21 06:57:34;;;;;;;11.82;3.05;;;21.00;58.80;;;;;;5036110;28;20129;-70
2021/09/21 06:59:59;;;;;;;10.45;3.08;;;21.00;58.90;;;;;;5039005;28;20041;-70
2021/09/21 07:02:25;;;;;;;13.50;2.97;;;21.00;59.00;;;;;;5033393;28;20041;-70
2021/09/21 07:04:51;;;;;;;10.73;2.63;;;21.10;59.20;;;;;;5035049;28;20051;-70
2021/09/21 07:07:17;;;;;;;12.15;2.78;;;21.00;59.10;;;;;;5036541;28;20049;-71
2021/09/21 07:09:43;;;;;;;10.55;2.97;;;21.10;59.30;;;;;;5031433;28;20096;-70
2021/09/21 07:12:08;;;;;;;15.45;2.92;;;21.00;59.20;;;;;;5034414;28;20116;-70
2021/09/21 07:14:34;;;;;;;11.20;3.35;;;21.10;59.30;;;;;;5033280;28;20826;-70
2021/09/21 07:17:00;;;;;;;9.38;2.88;;;21.00;59.20;;;;;;5034025;28;20530;-69
2021/09/21 07:19:25;;;;;;;9.88;2.95;;;21.10;59.50;;;;;;5034997;28;20037;-70
2021/09/21 07:21:51;;;;;;;8.07;2.58;;;21.00;59.30;;;;;;5035131;28;20051;-69
2021/09/21 07:24:18;;;;;;;9.13;2.70;;;21.00;59.40;;;;;;5033551;28;20038;-69
2021/09/21 07:26:46;;;;;;;10.05;2.75;;;21.10;59.50;;;;;;5033756;28;20053;-69
2021/09/21 07:29:12;;;;;;;11.48;2.63;;;21.10;59.60;;;;;;5033295;28;20600;-70
2021/09/21 07:31:38;;;;;;;15.25;2.90;;;21.10;59.60;;;;;;5034397;28;21407;-70
2021/09/21 07:34:04;;;;;;;11.07;2.50;;;21.10;59.70;;;;;;5034264;28;20037;-70
2021/09/21 07:36:31;;;;;;;9.70;2.70;;;21.10;59.70;;;;;;5031637;28;20548;-69
2021/09/21 07:38:58;;;;;;;8.75;2.70;;;21.10;59.70;;;;;;5036400;28;20597;-70
2021/09/21 07:41:25;;;;;;;10.45;2.72;;;21.00;59.60;;;;;;5035174;28;20131;-70
2021/09/21 07:43:50;;;;;;;10.45;2.97;;;21.10;59.80;;;;;;5032246;28;20041;-70
2021/09/21 07:46:16;;;;;;;9.75;2.78;;;21.10;59.80;;;;;;5033790;28;20039;-69
2021/09/21 07:48:43;;;;;;;10.93;2.60;;;21.00;59.60;;;;;;5033539;28;20183;-69
2021/09/21 07:51:08;;;;;;;10.82;2.60;;;21.10;59.90;;;;;;5032084;28;20060;-69
2021/09/21 07:53:34;;;;;;;9.13;2.72;;;21.10;59.90;;;;;;5033805;28;20041;-69
2021/09/21 07:56:00;;;;;;;8.90;2.33;;;21.10;60.00;;;;;;5033084;28;20044;-68
2021/09/21 07:58:26;;;;;;;11.15;2.80;;;21.10;60.00;;;;;;5036537;28;20091;-69
2021/09/21 08:00:54;;;;;;;8.35;2.40;;;21.10;60.00;;;;;;5038156;28;20041;-70
2021/09/21 08:03:21;;;;;;;8.52;2.33;;;21.10;60.00;;;;;;5035213;28;20065;-70
2021/09/21 08:05:47;;;;;;;11.05;2.67;;;21.00;59.80;;;;;;5036289;28;20048;-70
2021/09/21 08:08:15;;;;;;;8.43;2.70;;;21.10;60.00;;;;;;5036974;28;20029;-69
2021/09/21 08:10:41;;;;;;;7.78;2.30;;;21.10;60.00;;;;;;5038016;28;20043;-70
2021/09/21 08:13:07;;;;;;;7.35;2.15;;;21.00;59.90;;;;;;5039347;28;20045;-68
2021/09/21 08:15:33;;;;;;;6.57;2.10;;;21.10;60.00;;;;;;5037775;28;20046;-69
2021/09/21 08:17:59;;;;;;;6.28;2.03;;;21.10;60.00;;;;;;5036929;28;20070;-69
2021/09/21 08:20:25;;;;;;;9.40;2.33;;;21.10;60.00;;;;;;5037134;28;20140;-69
2021/09/21 08:22:51;;;;;;;6.63;2.10;;;21.10;60.00;;;;;;5037179;28;20248;-70
2021/09/21 08:25:18;;;;;;;12.50;2.20;;;21.10;60.00;;;;;;5039013;28;20037;-70
2021/09/21 08:27:44;;;;;;;9.90;2.40;;;21.10;60.00;;;;;;5037514;28;20037;-70
2021/09/21 08:30:11;;;;;;;6.95;2.20;;;21.10;60.00;;;;;;5037790;28;20087;-68
2021/09/21 08:32:37;;;;;;;9.57;2.83;;;21.10;60.00;;;;;;5037104;28;20047;-69
2021/09/21 08:35:05;;;;;;;6.20;1.95;;;21.10;60.00;;;;;;5036115;28;20051;-68
2021/09/21 08:37:31;;;;;;;7.68;2.28;;;21.10;60.00;;;;;;5036724;28;20562;-69
2021/09/21 08:39:57;;;;;;;6.75;2.10;;;21.10;60.00;;;;;;5036385;28;20084;-69
2021/09/21 08:42:23;;;;;;;7.35;2.15;;;21.10;60.00;;;;;;5034675;28;20049;-70
2021/09/21 08:44:49;;;;;;;7.55;2.10;;;21.10;60.00;;;;;;5036202;28;20577;-70
2021/09/21 08:47:16;;;;;;;7.00;1.90;;;21.10;60.00;;;;;;5037674;28;20072;-69
2021/09/21 08:49:41;;;;;;;8.48;2.38;;;21.10;60.00;;;;;;5036527;28;20540;-69
2021/09/21 08:52:07;;;;;;;8.70;2.05;;;21.10;60.00;;;;;;5033965;28;20045;-69
2021/09/21 08:54:33;;;;;;;9.75;1.92;;;21.10;60.00;;;;;;5035330;28;20041;-68
2021/09/21 08:57:00;;;;;;;10.02;2.42;;;21.10;60.00;;;;;;5034967;28;20049;-70
2021/09/21 08:59:30;;;;;;;8.90;2.10;;;21.10;60.00;;;;;;5036534;28;20047;-69
2021/09/21 09:01:56;;;;;;;7.55;2.20;;;21.10;60.00;;;;;;5035119;28;20072;-70
2021/09/21 09:04:22;;;;;;;6.38;1.75;;;21.10;60.00;;;;;;5034240;28;20072;-70
2021/09/21 09:06:52;;;;;;;6.95;2.08;;;21.10;60.00;;;;;;5035755;28;20037;-70
2021/09/21 09:09:22;;;;;;;6.70;2.00;;;21.10;60.00;;;;;;5037007;28;20477;-69
2021/09/21 09:11:56;;;;;;;7.93;1.90;;;21.10;60.00;;;;;;5035280;28;20041;-68
2021/09/21 09:14:24;;;;;;;6.93;1.90;;;21.10;60.00;;;;;;5037502;28;20084;-68
2021/09/21 09:16:55;;;;;;;7.95;2.20;;;21.10;60.00;;;;;;5034261;28;20438;-69
2021/09/21 09:19:28;;;;;;;8.00;2.55;;;21.10;60.10;;;;;;5035418;28;20413;-69
2021/09/21 09:21:53;;;;;;;7.88;2.20;;;21.10;60.00;;;;;;5036078;28;20044;-70
2021/09/21 09:24:20;;;;;;;8.77;2.10;;;21.10;60.00;;;;;;5033884;28;20044;-69
2021/09/21 09:26:46;;;;;;;6.07;1.80;;;21.10;60.00;;;;;;5034867;28;20081;-69
2021/09/21 09:29:14;;;;;;;6.18;2.05;;;21.10;60.10;;;;;;5034706;28;20589;-69
2021/09/21 09:31:42;;;;;;;6.47;2.05;;;21.10;60.10;;;;;;5033282;28;20037;-70
2021/09/21 09:34:14;;;;;;;6.15;1.92;;;21.10;60.00;;;;;;5034655;28;20041;-69
2021/09/21 09:36:49;;;;;;;5.85;1.80;;;21.10;60.10;;;;;;5035687;28;20489;-69
2021/09/21 09:39:16;;;;;;;;;;;21.00;60.00;;;;;;5035297;28;20387;-70
2021/09/21 09:41:44;;;;;;;7.13;2.05;;;21.10;60.10;;;;;;5037419;28;19962;-69
2021/09/21 09:44:13;;;;;;;5.55;1.77;;;21.10;60.10;;;;;;5035118;28;20033;-69
2021/09/21 09:46:52;;;;;;;6.85;2.13;;;21.00;60.00;;;;;;5036782;28;20172;-69
2021/09/21 09:52:12;;;;;;;6.15;2.00;;;21.10;60.10;;;;;;5037319;27;20450;-70
2021/09/21 09:54:40;;;;;;;7.30;2.08;;;21.10;60.10;;;;;;5030803;28;21323;-70
2021/09/21 09:57:08;;;;;;;7.97;2.00;;;21.00;60.00;;;;;;5032108;28;20564;-71
2021/09/21 09:59:34;;;;;;;6.60;1.90;;;21.10;60.10;;;;;;5031975;28;20502;-71
2021/09/21 10:02:00;;;;;;;6.03;1.70;;;21.00;60.00;;;;;;5033603;28;20053;-70
2021/09/21 10:04:26;;;;;;;6.63;1.92;;;21.00;60.00;;;;;;5031882;28;20038;-71
2021/09/21 10:06:52;;;;;;;5.43;1.70;;;21.10;60.10;;;;;;5031197;28;20038;-69
2021/09/21 10:09:19;;;;;;;7.13;1.90;;;21.10;60.10;;;;;;5030328;28;20411;-71
2021/09/21 10:11:48;;;;;;;6.88;2.00;;;21.00;60.00;;;;;;5031472;28;20406;-70
2021/09/21 10:14:17;;;;;;;5.07;1.70;;;21.00;60.00;;;;;;5032827;28;20052;-70
2021/09/21 10:17:04;;;;;;;6.47;2.13;;;21.10;60.10;;;;;;5030300;28;20053;-70
2021/09/21 10:19:31;;;;;;;4.93;1.75;;;21.10;60.10;;;;;;5028118;28;20094;-68
2021/09/21 10:21:58;;;;;;;7.28;2.00;;;21.10;60.10;;;;;;5029592;28;20042;-69
2021/09/21 10:24:50;;;;;;;4.75;1.58;;;21.10;60.10;;;;;;5030279;28;20037;-69
2021/09/21 10:27:21;;;;;;;5.75;1.73;;;21.10;60.10;;;;;;5032052;28;20080;-69
2021/09/21 10:30:04;;;;;;;4.72;1.50;;;21.10;60.10;;;;;;5031856;28;20497;-71
2021/09/21 10:32:30;;;;;;;4.80;1.67;;;21.10;60.10;;;;;;5029277;28;20029;-70
2021/09/21 10:34:58;;;;;;;8.23;1.70;;;21.10;60.10;;;;;;5026550;28;20048;-69
2021/09/21 10:37:30;;;;;;;5.75;1.65;;;21.10;60.10;;;;;;5029378;28;20038;-71
2021/09/21 10:40:02;;;;;;;6.63;1.77;;;21.10;60.10;;;;;;5031095;28;20029;-67
2021/09/21 10:42:28;;;;;;;4.93;1.50;;;21.10;60.10;;;;;;5028372;28;20033;-69
2021/09/21 10:44:58;;;;;;;5.50;2.00;;;21.10;60.10;;;;;;5029701;28;20045;-69
2021/09/21 10:47:36;;;;;;;5.03;1.70;;;21.10;60.10;;;;;;5028986;28;20540;-68
2021/09/21 10:50:17;;;;;;;4.60;1.60;;;21.10;60.10;;;;;;5028293;28;20034;-71
2021/09/21 10:52:45;;;;;;;5.32;1.60;;;21.10;60.10;;;;;;5030611;28;20053;-69
2021/09/21 10:55:13;;;;;;;5.57;1.50;;;21.10;60.10;;;;;;5028892;28;20520;-71
2021/09/21 10:57:44;;;;;;;4.32;1.52;;;21.10;60.10;;;;;;5028239;28;20033;-70
2021/09/21 11:00:23;;;;;;;7.30;1.90;;;21.10;60.10;;;;;;5026067;28;20030;-71
2021/09/21 11:02:53;;;;;;;5.93;1.52;;;21.10;60.10;;;;;;5022772;28;20048;-70
2021/09/21 11:05:26;;;;;;;5.40;1.58;;;21.10;60.10;;;;;;5014728;28;20578;-69
2021/09/21 11:08:02;;;;;;;4.95;1.60;;;21.00;60.10;;;;;;5015701;28;20128;-70
2021/09/21 11:10:36;;;;;;;5.72;1.70;;;21.10;60.10;;;;;;5016557;28;20048;-70
2021/09/21 11:13:09;;;;;;;5.25;1.60;;;21.10;60.10;;;;;;5016532;28;20045;-70
2021/09/21 11:15:34;;;;;;;4.80;1.40;;;21.10;60.10;;;;;;5013664;28;20594;-70
2021/09/21 11:18:30;;;;;;;5.95;1.50;;;21.10;60.10;;;;;;5015691;28;20125;-70
2021/09/21 11:21:03;;;;;;;6.57;1.70;;;21.10;60.10;;;;;;5013242;28;20048;-68
2021/09/21 11:23:32;;;;;;;3.92;1.40;;;21.10;60.10;;;;;;5018151;28;20067;-69
2021/09/21 11:26:00;;;;;;;4.75;1.52;;;21.10;60.10;;;;;;5015302;28;20042;-69
2021/09/21 11:28:33;;;;;;;4.75;1.42;;;21.10;60.10;;;;;;5016354;28;20045;-67
2021/09/21 11:31:01;;;;;;;4.57;1.50;;;21.10;60.10;;;;;;5018079;28;20045;-69
2021/09/21 11:33:34;;;;;;;5.38;1.35;;;21.10;60.10;;;;;;5015097;28;20030;-69
2021/09/21 11:36:04;;;;;;;4.07;1.30;;;21.10;60.10;;;;;;5016069;28;20052;-70
2021/09/21 11:38:35;;;;;;;7.50;1.88;;;21.00;60.00;;;;;;5016770;28;20602;-70
2021/09/21 11:41:02;;;;;;;5.32;1.55;;;21.10;60.10;;;;;;5018254;28;20049;-70
2021/09/21 11:43:29;;;;;;;7.22;1.52;;;21.10;60.10;;;;;;5019281;28;20034;-71
2021/09/21 11:45:56;;;;;;;4.45;1.30;;;21.10;60.10;;;;;;5017751;28;20037;-68
2021/09/21 11:48:23;;;;;;;4.85;1.40;;;21.10;60.10;;;;;;5016755;28;20049;-69
2021/09/21 11:50:49;;;;;;;6.70;1.60;;;21.10;60.10;;;;;;5019911;28;20045;-71
2021/09/21 11:53:20;;;;;;;4.53;1.42;;;21.10;60.10;;;;;;5015932;28;20164;-71
2021/09/21 11:55:49;;;;;;;4.30;1.48;;;21.10;60.10;;;;;;5016904;28;20034;-69
2021/09/21 11:58:17;;;;;;;7.35;1.35;;;21.10;60.10;;;;;;5020255;28;20041;-69
2021/09/21 12:00:42;;;;;;;5.43;1.70;;;21.10;60.10;;;;;;5016128;28;20045;-70
2021/09/21 12:03:16;;;;;;;6.22;1.88;;;21.10;60.10;;;;;;5018754;28;20044;-70
2021/09/21 12:05:44;;;;;;;6.63;1.90;;;21.10;60.10;;;;;;5016144;28;20034;-70
2021/09/21 12:08:17;;;;;;;5.00;2.00;;;21.10;60.10;;;;;;5016731;28;20053;-71
2021/09/21 12:10:45;;;;;;;6.32;2.50;;;21.10;60.10;;;;;;5017082;28;20050;-69
2021/09/21 12:13:18;;;;;;;8.90;3.08;;;21.10;60.10;;;;;;5018452;28;20044;-67
2021/09/21 12:15:49;;;;;;;10.18;3.90;;;21.10;60.10;;;;;;5018452;28;20034;-68
2021/09/21 12:18:15;;;;;;;10.57;4.22;;;21.10;60.10;;;;;;5017947;28;20509;-70
2021/09/21 12:20:49;;;;;;;14.48;5.80;;;21.10;60.10;;;;;;5016759;28;20099;-69
2021/09/21 12:23:15;;;;;;;12.65;5.22;;;21.10;60.10;;;;;;5014509;28;20045;-69
2021/09/21 12:25:41;;;;;;;15.07;6.32;;;21.10;60.10;;;;;;5013276;28;20062;-70
2021/09/21 12:28:09;;;;;;;20.75;7.10;;;21.10;60.10;;;;;;5014903;28;20125;-69
2021/09/21 12:30:39;;;;;;;20.00;7.50;;;21.10;60.10;;;;;;5014981;28;20526;-69
2021/09/21 12:33:10;;;;;;;26.90;10.25;;;21.10;60.00;;;;;;5014532;28;20045;-69
2021/09/21 12:35:39;;;;;;;21.20;9.15;;;21.10;60.00;;;;;;5014556;28;20041;-69
2021/09/21 12:38:14;;;;;;;18.80;9.68;;;21.10;60.00;;;;;;5015179;28;20442;-70
2021/09/21 12:40:49;;;;;;;28.25;10.63;;;21.10;60.00;;;;;;5013781;28;20120;-69
2021/09/21 12:43:29;;;;;;;20.60;10.50;;;21.10;60.10;;;;;;5014721;28;20046;-69
2021/09/21 12:46:05;;;;;;;23.27;10.23;;;21.10;60.10;;;;;;5013161;28;20388;-70
2021/09/21 12:48:33;;;;;;;23.27;11.00;;;21.10;60.00;;;;;;5013741;28;20038;-70
2021/09/21 12:51:03;;;;;;;22.65;10.00;;;21.10;59.90;;;;;;5014180;28;20137;-70
2021/09/21 12:53:29;;;;;;;22.40;10.18;;;21.10;59.70;;;;;;5014811;28;20092;-70
2021/09/21 12:55:58;;;;;;;21.20;9.40;;;21.10;59.10;;;;;;5012534;28;20092;-68
2021/09/21 12:58:26;;;;;;;24.42;9.93;;;21.10;59.00;;;;;;5016908;28;20044;-68
2021/09/21 13:00:52;;;;;;;22.13;9.52;;;21.00;58.00;;;;;;5014391;28;20125;-71